Time;durP1;ratioP1;P1;durP2;ratioP2;P2;SDS_P1;SDS_P2;PMS_P1;PMS_P2;Temp;Humidity;BMP_temperature;BMP_pressure;BME280_temperature;BME280_humidity;BME280_pressure;Samples;Min_cycle;Max_cycle;Signal;HPM_P1;HPM_P2
2023/09/20 00:01:46;;;;;;;5.18;1.58;;;18.00;93.50;;;;;;4968800;28;20101;-79
2023/09/20 00:04:12;;;;;;;4.93;1.63;;;17.90;93.50;;;;;;4982314;28;20097;-79
2023/09/20 00:06:38;;;;;;;2.88;1.20;;;17.90;93.50;;;;;;4950987;28;20031;-80
2023/09/20 00:09:04;;;;;;;8.10;1.67;;;17.90;93.50;;;;;;4982732;28;20041;-80
2023/09/20 00:11:29;;;;;;;5.53;1.48;;;17.90;93.60;;;;;;4967467;28;21271;-79
2023/09/20 00:13:57;;;;;;;5.55;1.83;;;17.90;93.70;;;;;;4966271;28;20117;-79
2023/09/20 00:16:23;;;;;;;4.13;1.50;;;17.80;93.70;;;;;;4953825;28;20760;-79
2023/09/20 00:18:49;;;;;;;5.18;1.52;;;17.80;93.70;;;;;;4970280;28;20041;-79
2023/09/20 00:21:14;;;;;;;4.65;1.42;;;17.80;93.60;;;;;;4967102;28;20124;-80
2023/09/20 00:23:40;;;;;;;7.07;1.30;;;17.80;93.70;;;;;;4969461;28;20510;-79
2023/09/20 00:26:06;;;;;;;4.10;1.33;;;17.80;93.80;;;;;;4967714;28;20028;-79
2023/09/20 00:28:31;;;;;;;3.15;1.25;;;17.80;93.80;;;;;;4966093;28;20046;-79
2023/09/20 00:30:57;;;;;;;6.85;1.42;;;17.80;93.80;;;;;;4953253;28;20035;-79
2023/09/20 00:33:23;;;;;;;5.93;1.40;;;17.80;94.00;;;;;;4968849;28;20395;-79
2023/09/20 00:35:48;;;;;;;8.15;1.75;;;17.70;94.00;;;;;;4970504;28;20418;-79
2023/09/20 00:38:18;;;;;;;5.35;2.40;;;17.80;94.00;;;;;;4955580;28;20045;-79
2023/09/20 00:40:43;;;;;;;1.98;1.05;;;17.60;93.90;;;;;;4953197;28;20034;-79
2023/09/20 00:43:11;;;;;;;4.78;1.60;;;17.70;94.20;;;;;;4968803;28;20487;-79
2023/09/20 00:45:36;;;;;;;6.32;2.05;;;17.70;94.20;;;;;;4969150;28;20034;-80
2023/09/20 00:48:02;;;;;;;3.70;1.35;;;17.70;94.20;;;;;;4968215;28;20117;-79
2023/09/20 00:50:31;;;;;;;2.33;1.52;;;17.60;94.30;;;;;;4967876;28;20124;-80
2023/09/20 00:52:56;;;;;;;5.32;1.80;;;17.70;94.30;;;;;;4969985;28;20522;-79
2023/09/20 00:55:24;;;;;;;6.95;2.15;;;17.70;94.30;;;;;;4972636;28;20039;-79
2023/09/20 00:57:52;;;;;;;5.25;1.42;;;17.70;94.30;;;;;;4968433;28;20026;-79
2023/09/20 01:00:21;;;;;;;6.00;1.40;;;17.70;94.30;;;;;;4970804;28;20035;-79
2023/09/20 01:02:48;;;;;;;5.53;1.90;;;17.70;94.30;;;;;;4968538;28;20047;-79
2023/09/20 01:05:14;;;;;;;6.53;1.80;;;17.70;94.50;;;;;;4969620;28;20134;-79
2023/09/20 01:07:42;;;;;;;7.90;2.65;;;17.70;94.40;;;;;;4966259;28;20110;-79
2023/09/20 01:10:09;;;;;;;3.92;1.83;;;17.60;94.80;;;;;;4961823;28;20133;-79
2023/09/20 01:12:35;;;;;;;1.42;0.90;;;17.60;94.50;;;;;;4970994;28;20581;-79
2023/09/20 01:15:00;;;;;;;4.07;1.23;;;17.70;94.60;;;;;;4970373;28;20059;-79
2023/09/20 01:17:26;;;;;;;4.40;1.63;;;17.70;94.60;;;;;;4970304;28;20514;-79
2023/09/20 01:19:51;;;;;;;3.28;1.10;;;17.70;94.70;;;;;;4969526;28;20035;-79
2023/09/20 01:22:17;;;;;;;4.70;1.50;;;17.70;94.80;;;;;;4955533;28;20035;-79
2023/09/20 01:24:43;;;;;;;4.28;1.75;;;17.60;94.80;;;;;;4971330;28;20046;-79
2023/09/20 01:27:09;;;;;;;4.43;1.20;;;17.60;94.70;;;;;;4967787;28;20054;-79
2023/09/20 01:29:36;;;;;;;2.90;1.25;;;17.50;94.90;;;;;;4972152;28;20046;-79
2023/09/20 01:32:02;;;;;;;4.85;1.48;;;17.50;95.00;;;;;;4967647;28;20030;-80
2023/09/20 01:34:28;;;;;;;3.50;1.13;;;17.50;95.00;;;;;;4936417;28;20035;-80
2023/09/20 01:36:54;;;;;;;3.25;1.50;;;17.50;95.10;;;;;;4951985;28;20054;-79
2023/09/20 01:39:19;;;;;;;2.20;0.93;;;17.40;95.00;;;;;;4968057;28;20242;-79
2023/09/20 01:41:46;;;;;;;4.28;1.58;;;17.50;95.20;;;;;;4971303;28;20035;-79
2023/09/20 01:44:12;;;;;;;4.15;1.80;;;17.40;95.10;;;;;;4972790;28;20030;-79
2023/09/20 01:46:37;;;;;;;3.95;1.40;;;17.40;95.20;;;;;;4968652;28;20716;-79
2023/09/20 01:49:05;;;;;;;6.35;1.70;;;17.40;95.20;;;;;;4974603;28;20502;-79
2023/09/20 01:51:31;;;;;;;4.35;1.67;;;17.30;95.40;;;;;;4956091;28;20121;-79
2023/09/20 01:53:56;;;;;;;5.88;1.30;;;17.30;95.40;;;;;;4976298;28;20755;-79
2023/09/20 01:56:25;;;;;;;3.45;1.42;;;17.30;95.60;;;;;;4970342;28;20073;-79
2023/09/20 01:58:51;;;;;;;6.05;1.63;;;17.20;95.50;;;;;;4970359;28;20046;-79
2023/09/20 02:01:18;;;;;;;4.68;1.33;;;17.20;95.70;;;;;;4956074;28;20561;-79
2023/09/20 02:03:44;;;;;;;8.18;1.98;;;17.20;95.70;;;;;;4969570;28;20434;-79
2023/09/20 02:06:11;;;;;;;5.05;1.50;;;17.10;95.90;;;;;;4969942;28;20506;-79
2023/09/20 02:08:36;;;;;;;5.05;1.75;;;17.10;95.70;;;;;;4975366;28;20030;-79
2023/09/20 02:11:03;;;;;;;5.15;1.30;;;17.10;96.40;;;;;;4971458;28;20042;-79
2023/09/20 02:13:28;;;;;;;8.50;1.88;;;17.10;95.90;;;;;;4968830;28;20037;-78
2023/09/20 02:15:55;;;;;;;4.45;1.60;;;17.10;96.10;;;;;;4972271;28;20042;-79
2023/09/20 02:18:22;;;;;;;5.55;1.67;;;17.20;96.20;;;;;;4953963;28;20113;-78
2023/09/20 02:20:47;;;;;;;5.00;1.40;;;17.10;96.30;;;;;;4970310;28;20463;-79
2023/09/20 02:23:13;;;;;;;3.38;1.52;;;17.00;96.30;;;;;;4969562;28;20109;-79
2023/09/20 02:25:40;;;;;;;6.75;2.03;;;17.00;96.30;;;;;;4957252;28;20058;-78
2023/09/20 02:28:07;;;;;;;8.52;1.50;;;17.00;96.90;;;;;;4976940;28;20485;-79
2023/09/20 02:30:35;;;;;;;4.22;1.58;;;17.00;96.40;;;;;;4973995;28;20067;-79
2023/09/20 02:33:05;;;;;;;4.68;1.77;;;17.00;96.50;;;;;;4974414;28;20095;-79
2023/09/20 02:35:30;;;;;;;7.25;1.92;;;17.00;96.40;;;;;;4990781;28;20035;-78
2023/09/20 02:37:57;;;;;;;7.05;1.70;;;17.00;96.70;;;;;;4954397;28;20065;-80
2023/09/20 02:40:23;;;;;;;8.85;1.83;;;16.90;96.60;;;;;;4955692;28;20043;-79
2023/09/20 02:42:53;;;;;;;4.78;1.80;;;16.90;96.60;;;;;;4969860;28;20519;-79
2023/09/20 02:45:19;;;;;;;8.02;2.13;;;17.00;96.70;;;;;;4956429;28;20035;-79
2023/09/20 02:47:46;;;;;;;5.55;2.40;;;16.80;97.10;;;;;;4972862;28;20037;-78
2023/09/20 02:50:13;;;;;;;4.55;2.05;;;16.90;97.30;;;;;;4970276;28;20026;-79
2023/09/20 02:52:39;;;;;;;4.45;1.58;;;16.80;97.20;;;;;;4970376;28;20035;-78
2023/09/20 02:55:12;;;;;;;5.10;1.92;;;16.80;97.20;;;;;;4971286;28;20035;-78
2023/09/20 02:57:37;;;;;;;8.27;1.85;;;16.90;97.20;;;;;;4955466;28;20038;-78
2023/09/20 03:00:16;;;;;;;4.40;1.77;;;16.80;97.30;;;;;;4970300;28;20487;-78
2023/09/20 03:02:45;;;;;;;7.57;2.20;;;16.80;97.40;;;;;;4954351;28;20043;-78
2023/09/20 03:05:32;;;;;;;4.50;2.17;;;16.80;97.40;;;;;;4955240;28;20487;-79
2023/09/20 03:07:58;;;;;;;6.35;2.03;;;16.70;97.70;;;;;;4968885;28;20090;-79
2023/09/20 03:10:24;;;;;;;4.32;1.80;;;16.70;97.40;;;;;;4956665;28;20543;-78
2023/09/20 03:12:54;;;;;;;4.75;1.63;;;16.70;97.60;;;;;;4972451;28;20157;-78
2023/09/20 03:15:21;;;;;;;6.78;1.80;;;16.80;97.60;;;;;;4971313;28;20810;-79
2023/09/20 03:17:48;;;;;;;7.72;1.73;;;16.70;97.70;;;;;;4971949;28;20066;-78
2023/09/20 03:20:23;;;;;;;4.22;1.42;;;16.70;97.80;;;;;;4973926;28;20031;-78
2023/09/20 03:22:54;;;;;;;5.18;1.83;;;16.70;97.80;;;;;;4969454;28;20031;-78
2023/09/20 03:25:20;;;;;;;5.97;1.60;;;16.70;98.00;;;;;;4958496;28;20494;-78
2023/09/20 03:27:46;;;;;;;5.00;1.98;;;16.70;98.00;;;;;;4974567;28;20395;-79
2023/09/20 03:30:13;;;;;;;5.57;1.92;;;16.60;98.00;;;;;;4967146;28;20035;-78
2023/09/20 03:32:42;;;;;;;5.22;2.10;;;16.60;97.90;;;;;;4970711;28;20042;-79
2023/09/20 03:35:08;;;;;;;6.95;2.05;;;16.60;98.10;;;;;;4970061;28;20038;-79
2023/09/20 03:37:36;;;;;;;5.55;1.60;;;16.50;98.30;;;;;;4968235;28;20603;-79
2023/09/20 03:40:05;;;;;;;3.53;1.80;;;16.50;98.60;;;;;;4974721;28;20684;-78
2023/09/20 03:42:31;;;;;;;5.65;1.98;;;16.50;98.60;;;;;;4948550;28;20545;-78
2023/09/20 03:44:56;;;;;;;8.68;2.20;;;16.50;98.50;;;;;;4972799;28;20050;-79
2023/09/20 03:47:22;;;;;;;7.15;2.30;;;16.50;98.50;;;;;;4967838;28;20026;-79
2023/09/20 03:49:51;;;;;;;7.93;2.22;;;16.40;98.70;;;;;;4973504;28;20018;-79
2023/09/20 03:52:18;;;;;;;4.90;2.58;;;16.40;98.80;;;;;;4968427;28;20894;-79
2023/09/20 03:54:53;;;;;;;7.20;1.73;;;16.40;99.20;;;;;;4971160;28;20031;-78
2023/09/20 03:57:24;;;;;;;7.85;1.83;;;16.30;98.90;;;;;;4967136;28;20027;-80
2023/09/20 03:59:52;;;;;;;3.15;1.77;;;16.30;99.60;;;;;;4959298;28;20885;-78
2023/09/20 04:02:19;;;;;;;8.93;1.90;;;16.20;99.30;;;;;;4968572;28;20075;-78
2023/09/20 04:04:44;;;;;;;3.35;1.58;;;16.20;99.60;;;;;;4971114;28;20086;-78
2023/09/20 04:07:10;;;;;;;5.38;1.48;;;16.30;99.50;;;;;;4967445;28;20483;-78
2023/09/20 04:09:35;;;;;;;6.75;1.90;;;16.40;99.30;;;;;;4973626;28;20038;-78
2023/09/20 04:12:03;;;;;;;4.53;1.70;;;16.30;99.50;;;;;;4958086;28;20030;-78
2023/09/20 04:14:28;;;;;;;6.57;1.55;;;16.20;99.70;;;;;;4970850;28;20038;-78
2023/09/20 04:16:54;;;;;;;4.43;1.80;;;16.20;99.80;;;;;;4967826;28;20560;-78
2023/09/20 04:19:21;;;;;;;2.40;1.63;;;16.10;99.70;;;;;;4973163;28;20679;-78
2023/09/20 04:21:47;;;;;;;5.50;1.80;;;16.20;99.80;;;;;;4972335;28;20449;-78
2023/09/20 04:24:13;;;;;;;4.97;1.98;;;16.20;99.80;;;;;;4953306;28;20443;-77
2023/09/20 04:26:39;;;;;;;5.22;1.55;;;16.20;99.90;;;;;;4968627;28;20038;-78
2023/09/20 04:29:04;;;;;;;6.28;1.83;;;16.20;99.90;;;;;;4953220;28;20039;-78
2023/09/20 04:31:32;;;;;;;5.07;1.58;;;16.20;99.90;;;;;;4967189;28;20034;-78
2023/09/20 04:33:58;;;;;;;5.72;1.55;;;16.20;99.80;;;;;;4966429;28;20042;-78
2023/09/20 04:36:23;;;;;;;4.78;1.48;;;16.20;99.90;;;;;;4977596;28;20094;-78
2023/09/20 04:38:50;;;;;;;2.80;1.42;;;16.20;99.80;;;;;;4982354;28;20027;-78
2023/09/20 04:41:17;;;;;;;3.20;1.75;;;16.20;99.90;;;;;;4972702;28;20037;-78
2023/09/20 04:43:42;;;;;;;9.20;2.38;;;16.20;99.90;;;;;;4968140;28;20030;-79
2023/09/20 04:46:08;;;;;;;5.35;2.15;;;16.10;99.90;;;;;;4956514;28;20505;-78
2023/09/20 04:48:33;;;;;;;4.85;1.50;;;16.10;99.90;;;;;;4967451;28;20078;-78
2023/09/20 04:50:59;;;;;;;4.63;2.45;;;16.10;99.90;;;;;;4959484;28;20531;-79
2023/09/20 04:53:25;;;;;;;5.30;1.77;;;16.30;99.90;;;;;;4953202;28;20443;-79
2023/09/20 04:55:51;;;;;;;4.90;1.42;;;16.20;99.90;;;;;;4959084;28;20049;-78
2023/09/20 04:58:17;;;;;;;4.72;1.80;;;16.20;99.90;;;;;;4972774;28;20031;-78
2023/09/20 05:00:43;;;;;;;7.75;1.60;;;16.10;99.90;;;;;;4969573;28;20046;-78
2023/09/20 05:03:11;;;;;;;5.43;1.48;;;16.10;99.90;;;;;;4972868;28;20351;-79
2023/09/20 05:05:36;;;;;;;3.25;1.40;;;16.10;99.90;;;;;;4969164;28;20026;-77
2023/09/20 05:08:04;;;;;;;6.97;1.65;;;16.10;99.90;;;;;;4968107;28;20041;-78
2023/09/20 05:10:29;;;;;;;4.35;1.63;;;16.10;99.90;;;;;;4971958;28;20783;-78
2023/09/20 05:12:55;;;;;;;5.82;1.55;;;16.10;99.90;;;;;;4960843;28;20036;-77
2023/09/20 05:15:23;;;;;;;9.38;1.80;;;16.10;99.90;;;;;;4975621;28;20122;-78
2023/09/20 05:17:49;;;;;;;5.63;1.73;;;16.20;99.90;;;;;;4978066;28;20030;-78
2023/09/20 05:20:14;;;;;;;4.82;1.90;;;16.20;99.90;;;;;;4972854;28;20035;-79
2023/09/20 05:22:40;;;;;;;3.50;1.45;;;16.10;99.90;;;;;;4975542;28;20018;-78
2023/09/20 05:25:07;;;;;;;6.78;2.40;;;16.10;99.90;;;;;;4971657;28;20398;-78
2023/09/20 05:27:33;;;;;;;5.22;2.13;;;16.20;99.90;;;;;;4971347;28;20050;-78
2023/09/20 05:29:59;;;;;;;3.38;1.52;;;16.10;99.90;;;;;;4973757;28;20170;-79
2023/09/20 05:32:24;;;;;;;3.42;1.67;;;16.20;99.90;;;;;;4971347;28;20527;-79
2023/09/20 05:34:50;;;;;;;3.05;1.67;;;16.10;99.90;;;;;;4973283;28;20031;-79
2023/09/20 05:37:16;;;;;;;6.45;1.70;;;16.20;99.90;;;;;;4962073;28;20507;-79
2023/09/20 05:39:43;;;;;;;4.60;1.70;;;16.10;99.90;;;;;;4972390;28;20105;-78
2023/09/20 05:42:09;;;;;;;4.10;1.55;;;16.20;99.90;;;;;;4972430;28;20509;-80
2023/09/20 05:44:36;;;;;;;3.95;1.40;;;16.10;99.90;;;;;;4975292;28;20031;-80
2023/09/20 05:47:03;;;;;;;4.78;1.77;;;16.10;99.90;;;;;;4957578;28;20491;-79
2023/09/20 05:49:29;;;;;;;3.08;1.90;;;16.10;99.90;;;;;;4973066;28;20396;-78
2023/09/20 05:51:56;;;;;;;5.07;1.83;;;16.20;99.90;;;;;;4978686;28;20448;-79
2023/09/20 05:54:23;;;;;;;3.30;1.52;;;16.20;99.90;;;;;;4969786;28;20055;-79
2023/09/20 05:56:50;;;;;;;2.70;1.58;;;16.20;99.90;;;;;;4969416;28;20426;-79
2023/09/20 05:59:16;;;;;;;4.18;2.10;;;16.20;99.90;;;;;;4951815;28;20570;-79
2023/09/20 06:01:42;;;;;;;4.00;1.63;;;16.30;99.90;;;;;;4956849;28;20762;-79
2023/09/20 06:04:09;;;;;;;2.17;1.38;;;16.30;99.90;;;;;;4969819;28;20027;-79
2023/09/20 06:06:37;;;;;;;2.58;1.73;;;16.20;99.90;;;;;;4960994;28;20055;-78
2023/09/20 06:09:03;;;;;;;4.00;1.27;;;16.20;99.90;;;;;;4953202;28;20542;-78
2023/09/20 06:11:29;;;;;;;8.07;2.47;;;16.30;99.90;;;;;;4960910;28;20070;-79
2023/09/20 06:13:55;;;;;;;7.72;1.77;;;16.30;99.90;;;;;;4957105;28;20047;-80
2023/09/20 06:16:22;;;;;;;4.55;2.30;;;16.40;99.90;;;;;;4955267;28;20043;-78
2023/09/20 06:18:48;;;;;;;4.40;1.60;;;16.40;99.90;;;;;;4967704;28;20567;-78
2023/09/20 06:21:17;;;;;;;7.28;2.30;;;16.30;99.90;;;;;;4974143;28;20446;-78
2023/09/20 06:23:43;;;;;;;4.53;1.63;;;16.50;99.90;;;;;;4981634;28;20485;-78
2023/09/20 06:26:12;;;;;;;6.63;2.25;;;16.40;99.90;;;;;;4992475;28;20355;-78
2023/09/20 06:28:41;;;;;;;3.97;1.70;;;16.50;99.90;;;;;;4973851;28;20039;-78
2023/09/20 06:31:16;;;;;;;3.45;1.70;;;16.60;99.90;;;;;;4976931;28;20061;-77
2023/09/20 06:33:44;;;;;;;3.47;1.77;;;16.70;99.90;;;;;;4974354;28;20041;-78
2023/09/20 06:36:20;;;;;;;4.95;1.60;;;16.80;99.90;;;;;;4973735;28;20047;-78
2023/09/20 06:38:47;;;;;;;6.47;2.08;;;16.80;99.90;;;;;;4972571;28;21434;-78
2023/09/20 06:41:13;;;;;;;7.55;2.15;;;16.90;99.90;;;;;;4971072;28;20399;-78
2023/09/20 06:43:40;;;;;;;8.32;2.50;;;17.00;99.90;;;;;;4956758;28;20042;-78
2023/09/20 06:46:06;;;;;;;3.33;1.88;;;17.10;99.90;;;;;;4974747;28;20113;-77
2023/09/20 06:48:32;;;;;;;9.68;2.22;;;17.00;99.90;;;;;;4968403;28;20130;-78
2023/09/20 06:50:57;;;;;;;5.60;1.90;;;17.20;99.90;;;;;;4969325;28;20035;-77
2023/09/20 06:53:23;;;;;;;5.82;2.03;;;17.20;99.90;;;;;;4970559;28;20039;-78
2023/09/20 06:55:49;;;;;;;3.97;2.03;;;17.30;99.90;;;;;;4973462;28;20050;-77
2023/09/20 06:58:15;;;;;;;4.25;1.90;;;17.40;99.90;;;;;;4973625;28;20043;-78
2023/09/20 07:00:41;;;;;;;5.80;2.10;;;17.40;99.90;;;;;;4970704;28;20065;-78
2023/09/20 07:03:07;;;;;;;4.90;1.40;;;17.50;99.90;;;;;;4973782;28;20392;-79
2023/09/20 07:05:33;;;;;;;3.13;1.90;;;17.50;99.90;;;;;;4972571;28;20041;-79
2023/09/20 07:07:58;;;;;;;8.93;2.25;;;17.60;99.90;;;;;;4972391;28;20034;-79
2023/09/20 07:10:25;;;;;;;6.00;1.85;;;17.60;99.90;;;;;;4971960;28;20031;-78
2023/09/20 07:12:53;;;;;;;3.65;1.80;;;17.70;99.90;;;;;;4972182;28;20062;-79
2023/09/20 07:15:19;;;;;;;4.13;1.60;;;17.70;99.90;;;;;;4969314;28;20038;-79
2023/09/20 07:17:46;;;;;;;4.15;1.80;;;17.70;99.90;;;;;;4973243;28;20122;-78
2023/09/20 07:20:17;;;;;;;5.38;2.05;;;17.80;99.90;;;;;;4956935;28;20041;-79
2023/09/20 07:22:44;;;;;;;2.67;1.65;;;17.80;99.90;;;;;;4971272;28;20149;-79
2023/09/20 07:25:19;;;;;;;4.95;1.67;;;17.80;99.90;;;;;;4972317;28;20511;-79
2023/09/20 07:27:48;;;;;;;6.05;2.05;;;17.90;99.90;;;;;;4973162;28;20365;-79
2023/09/20 07:30:17;;;;;;;3.35;1.58;;;17.90;99.90;;;;;;4987460;28;20050;-79
2023/09/20 07:32:44;;;;;;;5.70;1.65;;;18.00;99.90;;;;;;4972415;28;20543;-79
2023/09/20 07:38:25;;;;;;;8.10;1.52;;;18.10;99.90;;;;;;4982540;28;20113;-79
2023/09/20 07:40:51;;;;;;;5.53;1.67;;;18.20;99.90;;;;;;4940246;28;20562;-78
2023/09/20 07:43:18;;;;;;;5.50;1.90;;;18.10;99.90;;;;;;4972860;28;20114;-79
2023/09/20 07:45:44;;;;;;;3.50;1.75;;;18.30;99.90;;;;;;4975106;28;20058;-79
2023/09/20 07:48:13;;;;;;;4.32;2.15;;;18.40;99.90;;;;;;4971056;28;20457;-79
2023/09/20 07:50:52;;;;;;;2.53;1.58;;;18.40;99.90;;;;;;4990424;28;20495;-79
2023/09/20 07:53:18;;;;;;;3.40;2.20;;;18.50;99.90;;;;;;4973005;28;20035;-79
2023/09/20 07:55:56;;;;;;;2.35;1.30;;;18.60;99.90;;;;;;4973521;28;20436;-80
2023/09/20 07:58:22;;;;;;;7.53;1.50;;;18.70;99.90;;;;;;4973060;28;20034;-79
2023/09/20 08:00:49;;;;;;;4.88;1.67;;;18.70;99.90;;;;;;4973754;28;20521;-79
2023/09/20 08:03:15;;;;;;;8.15;1.52;;;18.90;99.90;;;;;;4971368;28;21229;-78
2023/09/20 08:05:43;;;;;;;5.25;1.70;;;19.00;99.90;;;;;;4989048;28;20035;-80
2023/09/20 08:08:10;;;;;;;3.70;1.70;;;19.10;99.80;;;;;;4970828;28;20062;-79
2023/09/20 08:10:37;;;;;;;3.65;1.40;;;19.10;99.50;;;;;;4956881;28;20414;-79
2023/09/20 08:13:04;;;;;;;3.38;1.50;;;19.20;99.60;;;;;;4975750;28;20034;-79
2023/09/20 08:15:44;;;;;;;5.85;1.52;;;19.40;99.50;;;;;;4943418;28;20794;-79
2023/09/20 08:20:57;;;;;;;3.42;1.42;;;19.50;99.10;;;;;;4965921;28;20525;-79
2023/09/20 09:01:48;;;;;;;1.90;0.90;;;21.20;95.60;;;;;;4970596;28;20105;-79
2023/09/20 09:04:18;;;;;;;5.47;1.13;;;21.30;95.80;;;;;;4954670;28;20031;-80
2023/09/20 09:06:44;;;;;;;3.03;1.35;;;21.40;95.90;;;;;;4955733;28;20050;-80
2023/09/20 09:09:10;;;;;;;2.70;0.80;;;21.50;95.50;;;;;;4955796;28;20038;-80
2023/09/20 09:11:36;;;;;;;3.55;1.17;;;21.50;95.20;;;;;;4970473;28;20153;-79
2023/09/20 09:14:01;;;;;;;3.67;1.25;;;21.50;95.60;;;;;;4971842;28;20146;-79
2023/09/20 09:16:31;;;;;;;2.17;1.48;;;21.50;95.20;;;;;;4971491;28;20077;-79
2023/09/20 09:18:56;;;;;;;4.75;1.50;;;21.60;95.20;;;;;;4973479;28;20046;-80
2023/09/20 09:21:22;;;;;;;3.17;1.20;;;21.70;95.10;;;;;;4971946;28;20031;-80
2023/09/20 09:23:48;;;;;;;6.15;1.30;;;21.70;94.90;;;;;;4970277;28;20568;-79
2023/09/20 09:26:15;;;;;;;6.25;1.38;;;21.60;94.60;;;;;;4969581;28;20134;-80
2023/09/20 09:28:42;;;;;;;2.30;1.30;;;21.70;94.80;;;;;;4956517;28;20035;-79
2023/09/20 09:31:08;;;;;;;3.28;1.10;;;21.70;94.80;;;;;;4962403;28;20038;-80
2023/09/20 09:33:38;;;;;;;1.40;1.08;;;21.60;94.50;;;;;;4970759;28;20039;-79
2023/09/20 09:36:04;;;;;;;3.47;1.20;;;21.70;94.70;;;;;;4972472;28;20117;-79
2023/09/20 09:38:33;;;;;;;2.78;0.90;;;21.80;94.60;;;;;;4967258;28;20391;-80
2023/09/20 09:40:58;;;;;;;2.97;1.20;;;21.90;94.80;;;;;;4971378;28;20038;-80
2023/09/20 09:43:26;;;;;;;2.95;1.05;;;22.00;94.80;;;;;;4970639;28;20054;-80
2023/09/20 09:45:55;;;;;;;3.13;1.15;;;22.10;94.50;;;;;;4971957;28;20526;-80
2023/09/20 09:48:20;;;;;;;2.10;1.00;;;22.00;94.30;;;;;;4970940;28;20110;-80
2023/09/20 09:50:46;;;;;;;1.98;0.98;;;22.00;94.30;;;;;;4984573;28;20138;-80
2023/09/20 09:53:15;;;;;;;2.30;0.90;;;22.20;94.10;;;;;;4989075;28;20034;-80
2023/09/20 09:55:41;;;;;;;2.65;0.90;;;22.20;94.20;;;;;;4972130;28;20050;-80
2023/09/20 09:58:08;;;;;;;2.47;1.02;;;22.20;94.10;;;;;;4975238;28;20030;-78
2023/09/20 10:00:36;;;;;;;5.82;1.13;;;22.20;94.00;;;;;;4969428;28;20482;-80
2023/09/20 10:03:09;;;;;;;2.60;1.13;;;22.30;94.20;;;;;;4972995;28;20478;-80
2023/09/20 10:05:35;;;;;;;1.30;0.82;;;22.40;93.90;;;;;;4972925;28;20142;-80
2023/09/20 10:08:01;;;;;;;3.78;1.05;;;22.40;94.00;;;;;;4958036;28;20490;-79
2023/09/20 10:10:27;;;;;;;2.50;1.20;;;22.30;93.90;;;;;;4972970;28;20518;-79
2023/09/20 10:12:54;;;;;;;2.65;0.90;;;22.50;93.80;;;;;;4974428;28;20033;-79
2023/09/20 10:15:19;;;;;;;1.50;1.05;;;22.50;93.70;;;;;;4953254;28;20453;-79
2023/09/20 10:17:55;;;;;;;4.82;1.10;;;22.40;93.50;;;;;;4970520;28;20114;-80
2023/09/20 10:20:22;;;;;;;3.08;1.50;;;22.60;94.10;;;;;;4970901;28;20162;-78
2023/09/20 10:22:48;;;;;;;1.08;0.93;;;22.40;93.60;;;;;;4971658;28;20033;-80
2023/09/20 10:25:34;;;;;;;6.10;1.02;;;22.50;93.80;;;;;;4959478;28;20034;-81
2023/09/20 10:28:09;;;;;;;1.45;0.65;;;22.50;93.70;;;;;;4971833;28;20363;-80
2023/09/20 10:31:04;;;;;;;3.13;1.25;;;22.40;93.70;;;;;;4960438;28;20030;-81
2023/09/20 10:33:55;;;;;;;1.60;0.90;;;22.50;93.80;;;;;;4971729;28;20041;-79
2023/09/20 10:36:27;;;;;;;3.10;1.23;;;22.60;93.80;;;;;;4974646;28;20045;-80
2023/09/20 10:39:13;;;;;;;2.42;1.00;;;22.60;93.80;;;;;;4940613;28;20039;-78
2023/09/20 10:41:40;;;;;;;2.38;1.23;;;22.60;93.90;;;;;;4957975;28;20200;-80
2023/09/20 10:44:05;;;;;;;3.60;1.27;;;22.60;93.80;;;;;;4977387;28;20035;-79
2023/09/20 10:46:34;;;;;;;2.75;1.13;;;22.50;93.80;;;;;;4960701;28;20042;-80
2023/09/20 10:49:00;;;;;;;0.88;0.57;;;22.80;93.80;;;;;;4957811;28;20043;-79
2023/09/20 10:51:42;;;;;;;2.88;1.58;;;23.00;93.80;;;;;;4968544;28;20678;-79
2023/09/20 10:54:29;;;;;;;4.05;1.42;;;22.80;93.60;;;;;;4970182;28;20446;-80
2023/09/20 10:57:03;;;;;;;3.45;1.10;;;23.00;93.50;;;;;;4972486;28;20042;-79
2023/09/20 10:59:30;;;;;;;4.45;1.05;;;23.00;93.50;;;;;;4951819;28;20038;-79
2023/09/20 11:02:09;;;;;;;2.13;1.38;;;22.90;93.50;;;;;;4973102;28;20414;-79
2023/09/20 11:04:37;;;;;;;1.85;1.15;;;23.00;93.60;;;;;;4958506;28;20395;-80
2023/09/20 11:07:02;;;;;;;3.03;1.10;;;23.10;93.60;;;;;;4972860;28;20031;-79
2023/09/20 11:09:33;;;;;;;2.40;1.30;;;23.20;93.60;;;;;;4956228;28;20214;-79
2023/09/20 11:12:06;;;;;;;2.60;0.95;;;23.20;93.70;;;;;;4951194;28;20266;-79
2023/09/20 11:14:39;;;;;;;2.15;1.50;;;23.20;93.70;;;;;;4956277;28;20051;-80
2023/09/20 11:17:05;;;;;;;2.00;0.90;;;23.50;93.40;;;;;;4972125;28;20045;-80
2023/09/20 11:19:32;;;;;;;2.95;1.13;;;23.50;93.10;;;;;;4968617;28;20031;-80
2023/09/20 11:21:58;;;;;;;1.67;0.93;;;23.60;93.00;;;;;;4936878;28;20210;-78
2023/09/20 11:24:25;;;;;;;2.47;0.98;;;23.60;93.00;;;;;;4957868;28;20542;-79
2023/09/20 11:26:55;;;;;;;1.27;0.90;;;23.70;92.70;;;;;;4969483;28;20446;-79
2023/09/20 11:29:21;;;;;;;2.63;1.13;;;23.80;92.80;;;;;;4973047;28;20169;-80
2023/09/20 11:31:48;;;;;;;2.22;1.00;;;23.90;92.80;;;;;;4965008;28;20438;-81
2023/09/20 11:34:14;;;;;;;2.50;1.17;;;23.90;91.90;;;;;;5000783;28;20041;-79
2023/09/20 11:36:46;;;;;;;6.38;1.50;;;23.90;91.80;;;;;;4970289;28;20031;-80
2023/09/20 11:39:18;;;;;;;2.28;1.10;;;24.00;91.40;;;;;;4929880;28;20036;-80
2023/09/20 11:41:45;;;;;;;2.22;1.08;;;24.10;91.00;;;;;;4950022;28;20027;-80
2023/09/20 11:44:11;;;;;;;2.22;0.90;;;24.20;90.80;;;;;;4973210;28;20035;-80
2023/09/20 11:46:37;;;;;;;4.10;1.00;;;24.10;90.60;;;;;;4974636;28;20080;-80
2023/09/20 11:49:03;;;;;;;1.02;0.70;;;24.30;90.60;;;;;;4957014;28;20059;-79
2023/09/20 11:51:34;;;;;;;3.08;0.70;;;24.40;90.40;;;;;;4957594;28;20034;-78
2023/09/20 11:54:00;;;;;;;4.55;0.90;;;24.50;90.40;;;;;;4968771;28;20454;-79
2023/09/20 11:56:31;;;;;;;2.00;0.93;;;24.70;90.00;;;;;;4955528;28;20038;-78
2023/09/20 11:59:00;;;;;;;1.08;0.65;;;24.80;89.30;;;;;;4973214;28;20042;-78
2023/09/20 12:01:29;;;;;;;2.45;0.93;;;24.90;88.70;;;;;;4968247;28;20054;-78
2023/09/20 12:03:58;;;;;;;1.77;0.77;;;25.10;87.00;;;;;;4970149;28;20398;-78
2023/09/20 12:06:26;;;;;;;4.55;0.82;;;25.20;86.70;;;;;;4969601;28;20037;-78
2023/09/20 12:08:54;;;;;;;0.88;0.55;;;25.20;86.00;;;;;;4969617;28;20114;-78
2023/09/20 12:11:20;;;;;;;2.20;0.80;;;25.30;86.40;;;;;;4968317;28;20512;-78
2023/09/20 12:13:46;;;;;;;2.50;0.60;;;25.30;86.20;;;;;;4968730;28;20038;-78
2023/09/20 12:16:13;;;;;;;2.67;1.00;;;25.40;85.20;;;;;;4967567;28;20039;-78
2023/09/20 12:18:38;;;;;;;2.60;0.80;;;25.60;83.60;;;;;;4973155;28;20041;-78
2023/09/20 12:21:07;;;;;;;2.33;0.70;;;25.50;84.90;;;;;;4955504;28;20511;-77
2023/09/20 12:23:35;;;;;;;2.60;0.95;;;25.60;84.70;;;;;;4968007;28;20086;-77
2023/09/20 12:26:01;;;;;;;2.33;1.02;;;25.80;84.50;;;;;;4969123;28;20049;-78
2023/09/20 12:28:26;;;;;;;4.80;0.88;;;26.00;84.10;;;;;;4967907;28;20038;-77
2023/09/20 12:30:52;;;;;;;0.73;0.38;;;26.00;82.80;;;;;;4977348;28;20038;-77
2023/09/20 12:33:19;;;;;;;1.38;0.70;;;26.10;82.70;;;;;;4969486;28;20038;-77
2023/09/20 12:35:46;;;;;;;1.50;0.90;;;26.20;82.80;;;;;;4971889;28;20136;-78
2023/09/20 12:38:11;;;;;;;1.77;0.85;;;26.30;80.50;;;;;;4966664;28;20038;-77
2023/09/20 12:40:37;;;;;;;4.50;0.80;;;26.40;79.60;;;;;;4967388;28;20038;-79
2023/09/20 12:43:03;;;;;;;1.00;0.85;;;26.30;81.10;;;;;;4970210;28;20035;-79
2023/09/20 12:45:29;;;;;;;2.15;0.88;;;26.50;80.70;;;;;;4965709;28;20034;-77
2023/09/20 12:47:55;;;;;;;4.22;0.90;;;26.80;81.20;;;;;;4980757;28;20031;-78
2023/09/20 12:50:21;;;;;;;4.22;1.10;;;26.80;79.90;;;;;;4958377;28;20030;-78
2023/09/20 12:52:47;;;;;;;3.78;0.93;;;26.70;80.00;;;;;;4951734;28;20475;-78
2023/09/20 12:55:13;;;;;;;1.90;1.00;;;26.80;80.30;;;;;;4970312;28;20022;-77
2023/09/20 12:57:39;;;;;;;4.57;1.00;;;27.10;78.30;;;;;;4966967;28;20121;-78
2023/09/20 13:00:08;;;;;;;3.30;1.00;;;27.40;79.00;;;;;;4950626;28;20042;-78
2023/09/20 13:02:34;;;;;;;3.45;1.33;;;27.60;76.80;;;;;;4969377;28;20042;-78
2023/09/20 13:04:59;;;;;;;3.60;1.15;;;27.60;76.90;;;;;;4970895;28;20057;-77
2023/09/20 13:07:29;;;;;;;2.42;0.60;;;27.40;76.70;;;;;;4965806;28;20031;-77
2023/09/20 13:09:57;;;;;;;2.53;0.85;;;27.50;75.60;;;;;;4970257;28;20034;-77
2023/09/20 13:12:23;;;;;;;4.72;1.30;;;27.70;75.70;;;;;;4966376;28;20431;-77
2023/09/20 13:14:49;;;;;;;3.28;1.30;;;27.80;75.90;;;;;;4965563;28;20120;-77
2023/09/20 13:17:15;;;;;;;1.73;0.85;;;27.70;75.30;;;;;;4952697;28;20038;-78
2023/09/20 13:19:40;;;;;;;2.53;1.17;;;27.80;74.10;;;;;;4966901;28;20365;-79
2023/09/20 13:22:08;;;;;;;1.83;0.95;;;27.80;74.80;;;;;;4963757;28;20058;-77
2023/09/20 13:24:34;;;;;;;4.47;0.98;;;27.80;74.00;;;;;;4967882;28;20045;-77
2023/09/20 13:27:03;;;;;;;4.43;1.75;;;27.90;74.00;;;;;;4971451;28;20698;-78
2023/09/20 13:29:29;;;;;;;2.78;1.02;;;28.00;72.90;;;;;;4974314;28;20085;-76
2023/09/20 13:31:54;;;;;;;3.83;1.63;;;28.00;73.10;;;;;;4970823;28;20082;-77
2023/09/20 13:34:21;;;;;;;2.08;0.90;;;27.80;74.20;;;;;;4951829;28;20510;-77